Time;durP1;ratioP1;P1;durP2;ratioP2;P2;SDS_P1;SDS_P2;PMS_P1;PMS_P2;Temp;Humidity;BMP_temperature;BMP_pressure;BME280_temperature;BME280_humidity;BME280_pressure;Samples;Min_cycle;Max_cycle;Signal;HPM_P1;HPM_P2
2023/07/06 00:01:39;;;;;;;6.50;5.07;;;14.00;1.00;;;;;;4999091;28;20459;-84
2023/07/06 00:04:04;;;;;;;9.20;4.73;;;14.00;1.00;;;;;;4998974;28;20455;-85
2023/07/06 00:06:32;;;;;;;7.13;4.83;;;14.00;1.00;;;;;;5010613;28;20203;-84
2023/07/06 00:08:58;;;;;;;7.80;5.60;;;14.00;1.00;;;;;;4993347;28;20592;-85
2023/07/06 00:11:23;;;;;;;7.77;5.30;;;13.90;1.00;;;;;;4986541;28;20462;-85
2023/07/06 00:13:49;;;;;;;7.50;5.20;;;13.90;1.00;;;;;;4987032;28;20711;-85
2023/07/06 00:16:16;;;;;;;7.53;5.40;;;13.90;1.00;;;;;;5006892;28;20302;-85
2023/07/06 00:18:42;;;;;;;10.17;5.10;;;13.90;1.00;;;;;;5008450;28;20183;-85
2023/07/06 00:21:08;;;;;;;7.73;5.40;;;13.80;1.00;;;;;;4999753;28;20833;-84
2023/07/06 00:23:33;;;;;;;6.83;5.20;;;13.80;1.00;;;;;;4985458;28;20176;-83
2023/07/06 00:25:59;;;;;;;7.20;5.10;;;13.80;1.00;;;;;;4984113;28;20429;-84
2023/07/06 00:28:26;;;;;;;6.20;4.40;;;13.80;1.00;;;;;;4984277;28;20184;-84
2023/07/06 00:33:19;;;;;;;8.90;5.70;;;13.70;1.00;;;;;;4998163;28;20428;-84
2023/07/06 00:35:45;;;;;;;12.53;5.43;;;13.70;1.00;;;;;;4993369;28;20849;-84
2023/07/06 00:38:14;;;;;;;9.57;5.07;;;13.60;1.00;;;;;;4990202;28;20567;-85
2023/07/06 00:40:41;;;;;;;6.90;5.50;;;13.60;1.00;;;;;;4991246;28;20835;-84
2023/07/06 00:43:16;;;;;;;9.30;4.90;;;13.60;1.00;;;;;;4981273;28;20432;-84
2023/07/06 00:45:42;;;;;;;9.80;5.60;;;13.60;1.00;;;;;;4982000;28;20486;-84
2023/07/06 00:48:36;;;;;;;10.10;5.43;;;13.60;1.00;;;;;;4995457;28;20455;-85
2023/07/06 00:51:07;;;;;;;11.00;5.33;;;13.50;1.00;;;;;;4995589;28;20519;-85
2023/07/06 00:53:41;;;;;;;9.17;5.50;;;13.50;1.00;;;;;;4990774;28;20443;-84
2023/07/06 00:56:09;;;;;;;9.00;6.87;;;13.50;1.00;;;;;;4999739;28;20516;-84
2023/07/06 00:58:40;;;;;;;7.27;4.70;;;13.50;1.00;;;;;;4985854;28;20432;-84
2023/07/06 01:01:09;;;;;;;10.50;5.10;;;13.50;1.00;;;;;;4994152;28;20470;-85
2023/07/06 01:03:44;;;;;;;7.90;5.47;;;13.50;1.00;;;;;;5001510;28;20442;-85
2023/07/06 01:06:13;;;;;;;9.30;5.80;;;13.50;1.00;;;;;;4984803;28;20436;-85
2023/07/06 01:08:39;;;;;;;7.83;5.13;;;13.50;1.00;;;;;;4989113;28;20427;-85
2023/07/06 01:11:08;;;;;;;9.57;5.53;;;13.50;1.00;;;;;;4991942;28;20466;-84
2023/07/06 01:13:34;;;;;;;6.00;4.50;;;13.40;1.00;;;;;;4990032;28;20184;-85
2023/07/06 01:16:21;;;;;;;11.70;5.37;;;13.40;1.00;;;;;;5000576;28;20466;-85
2023/07/06 01:19:30;;;;;;;9.00;5.53;;;13.40;1.00;;;;;;4984290;28;20428;-84
2023/07/06 01:22:23;;;;;;;12.23;5.00;;;13.40;1.00;;;;;;4987965;28;20494;-84
2023/07/06 01:25:27;;;;;;;8.30;4.53;;;13.30;1.00;;;;;;4982941;28;20438;-84
2023/07/06 01:28:27;;;;;;;10.00;5.53;;;13.30;1.00;;;;;;5011408;28;20521;-84
2023/07/06 01:30:57;;;;;;;9.80;4.53;;;13.20;1.00;;;;;;4999998;28;20474;-85
2023/07/06 01:33:54;;;;;;;15.73;5.93;;;13.20;1.00;;;;;;4991510;28;20440;-83
2023/07/06 01:36:40;;;;;;;9.60;4.33;;;13.20;1.00;;;;;;5000062;28;20958;-84
2023/07/06 01:39:22;;;;;;;7.30;4.80;;;13.20;1.00;;;;;;4991820;28;20443;-84
2023/07/06 01:42:14;;;;;;;9.00;4.60;;;13.20;1.00;;;;;;4999376;28;20466;-85
2023/07/06 01:44:45;;;;;;;7.13;4.50;;;13.20;1.00;;;;;;4994427;28;20443;-85
2023/07/06 01:47:11;;;;;;;7.70;4.70;;;13.10;1.00;;;;;;4990419;28;20479;-85
2023/07/06 01:49:38;;;;;;;7.03;4.70;;;13.10;1.00;;;;;;4988792;28;20452;-85
2023/07/06 01:52:34;;;;;;;7.30;4.80;;;13.10;1.00;;;;;;4990016;28;20207;-84
2023/07/06 01:55:24;;;;;;;8.20;4.00;;;13.10;1.00;;;;;;4986621;28;20504;-85
2023/07/06 01:57:59;;;;;;;10.17;5.73;;;13.10;1.00;;;;;;4982168;28;20440;-86
2023/07/06 02:00:26;;;;;;;9.43;5.93;;;13.10;1.00;;;;;;4991935;28;20458;-85
2023/07/06 02:02:54;;;;;;;11.93;5.30;;;13.00;1.00;;;;;;4998028;28;20885;-84
2023/07/06 02:05:22;;;;;;;15.53;4.50;;;13.00;1.00;;;;;;4999361;28;20427;-85
2023/07/06 02:07:49;;;;;;;14.53;5.53;;;13.00;1.00;;;;;;5001439;28;20495;-84
2023/07/06 02:10:17;;;;;;;10.77;4.67;;;13.00;1.00;;;;;;4983203;28;20521;-84
2023/07/06 02:12:47;;;;;;;6.63;4.70;;;12.90;1.00;;;;;;4982460;28;20443;-86
2023/07/06 02:15:16;;;;;;;15.20;4.23;;;12.90;1.00;;;;;;4982705;28;20463;-85
2023/07/06 02:17:42;;;;;;;7.90;4.20;;;12.90;1.00;;;;;;4987001;28;20475;-83
2023/07/06 02:20:08;;;;;;;7.10;4.60;;;12.90;1.00;;;;;;4993006;28;20428;-84
2023/07/06 02:22:34;;;;;;;12.07;4.67;;;12.90;1.00;;;;;;4989939;28;20526;-84
2023/07/06 02:25:00;;;;;;;5.77;3.93;;;12.90;99.90;;;;;;4999499;28;20419;-85
2023/07/06 02:27:25;;;;;;;8.03;4.47;;;12.90;99.90;;;;;;4997980;28;20185;-84
2023/07/06 02:29:50;;;;;;;6.50;4.80;;;12.90;99.90;;;;;;4983754;28;20226;-84
2023/07/06 02:32:19;;;;;;;8.17;4.00;;;12.80;99.90;;;;;;4991303;28;20207;-84
2023/07/06 02:34:45;;;;;;;9.87;4.50;;;12.80;99.90;;;;;;4998095;28;20219;-84
2023/07/06 02:37:11;;;;;;;7.57;4.10;;;12.80;99.90;;;;;;4994811;28;20453;-84
2023/07/06 02:39:36;;;;;;;13.73;4.53;;;12.80;99.90;;;;;;4996788;28;20440;-85
2023/07/06 02:42:03;;;;;;;10.10;4.80;;;12.80;99.90;;;;;;4992040;28;20711;-84
2023/07/06 02:44:28;;;;;;;13.63;4.77;;;12.80;99.90;;;;;;4985720;28;20189;-85
2023/07/06 02:46:54;;;;;;;12.53;4.67;;;12.80;99.90;;;;;;4992431;28;20796;-86
2023/07/06 02:49:20;;;;;;;6.73;4.47;;;12.80;99.90;;;;;;5003657;28;20184;-85
2023/07/06 02:51:46;;;;;;;10.60;3.87;;;12.80;99.90;;;;;;4998877;28;20907;-84
2023/07/06 02:54:15;;;;;;;15.87;5.60;;;12.70;99.90;;;;;;4989964;28;20214;-85
2023/07/06 02:56:41;;;;;;;7.60;4.00;;;12.70;99.90;;;;;;4987899;28;20427;-84
2023/07/06 02:59:08;;;;;;;7.77;4.07;;;12.70;99.90;;;;;;4992302;28;20451;-85
2023/07/06 03:01:34;;;;;;;12.03;4.10;;;12.70;99.90;;;;;;4995223;28;20839;-84
2023/07/06 03:04:00;;;;;;;10.87;3.80;;;12.70;99.90;;;;;;4989847;28;20443;-84
2023/07/06 03:06:25;;;;;;;7.53;4.10;;;12.60;99.90;;;;;;4991941;28;20448;-86
2023/07/06 03:08:51;;;;;;;9.23;4.10;;;12.60;99.90;;;;;;4995347;28;20185;-85
2023/07/06 03:11:17;;;;;;;6.20;3.60;;;12.60;99.90;;;;;;5001010;28;20272;-85
2023/07/06 03:13:42;;;;;;;8.53;3.90;;;12.60;99.90;;;;;;4998490;28;20207;-84
2023/07/06 03:16:08;;;;;;;36.63;5.87;;;12.60;99.90;;;;;;5004471;28;20593;-83
2023/07/06 03:18:34;;;;;;;7.90;4.30;;;12.60;99.90;;;;;;4985740;28;20683;-85
2023/07/06 03:21:03;;;;;;;14.53;4.03;;;12.60;99.90;;;;;;5003984;28;20482;-85
2023/07/06 03:23:29;;;;;;;12.33;3.67;;;12.50;99.90;;;;;;4995027;28;20239;-85
2023/07/06 03:25:55;;;;;;;12.23;4.03;;;12.50;99.90;;;;;;4996619;28;20493;-84
2023/07/06 03:28:22;;;;;;;8.77;4.47;;;12.50;99.90;;;;;;4999851;28;20442;-85
2023/07/06 03:30:57;;;;;;;10.83;4.90;;;12.50;99.90;;;;;;4989268;28;20265;-84
2023/07/06 03:33:26;;;;;;;9.30;4.40;;;12.50;99.90;;;;;;4992163;28;20427;-84
2023/07/06 03:35:55;;;;;;;6.10;3.60;;;12.50;99.90;;;;;;4987695;28;20477;-85
2023/07/06 03:38:21;;;;;;;6.93;4.20;;;12.50;99.90;;;;;;4986892;28;20434;-84
2023/07/06 03:40:51;;;;;;;10.93;4.30;;;12.50;99.90;;;;;;4997203;28;20565;-85
2023/07/06 03:43:17;;;;;;;8.37;3.80;;;12.50;99.90;;;;;;4987461;28;20644;-84
2023/07/06 03:45:46;;;;;;;10.47;4.07;;;12.50;99.90;;;;;;4999589;28;20451;-85
2023/07/06 03:48:12;;;;;;;9.33;4.70;;;12.50;99.90;;;;;;4999738;28;20951;-84
2023/07/06 03:50:38;;;;;;;6.30;3.30;;;12.50;99.90;;;;;;5003487;28;20447;-84
2023/07/06 03:53:03;;;;;;;11.33;3.67;;;12.50;99.90;;;;;;5005545;28;20449;-84
2023/07/06 03:55:29;;;;;;;11.00;3.37;;;12.50;99.90;;;;;;5001262;28;20223;-85
2023/07/06 03:57:54;;;;;;;12.40;4.03;;;12.60;99.90;;;;;;4994695;28;20207;-85
2023/07/06 04:00:21;;;;;;;7.30;3.70;;;12.60;99.90;;;;;;5002834;28;20618;-85
2023/07/06 04:02:54;;;;;;;10.03;4.00;;;12.60;99.90;;;;;;4999792;28;20257;-84
2023/07/06 04:05:43;;;;;;;8.00;3.70;;;12.70;99.90;;;;;;5006820;28;20540;-84
2023/07/06 04:08:13;;;;;;;9.53;5.27;;;12.70;99.90;;;;;;4997030;28;20439;-83
2023/07/06 04:10:40;;;;;;;6.50;2.83;;;12.70;99.90;;;;;;4989562;28;20460;-85
2023/07/06 04:13:06;;;;;;;11.90;3.57;;;12.80;99.90;;;;;;5000957;28;20483;-84
2023/07/06 04:15:33;;;;;;;7.53;3.30;;;12.80;99.90;;;;;;4993775;28;20474;-85
2023/07/06 04:17:58;;;;;;;10.10;5.13;;;12.90;81.50;;;;;;4995343;28;20430;-83
2023/07/06 04:20:28;;;;;;;4.40;2.90;;;13.00;1.00;;;;;;5017454;28;20980;-85
2023/07/06 04:22:55;;;;;;;5.50;4.20;;;13.00;1.00;;;;;;4991505;28;20188;-84
2023/07/06 04:25:22;;;;;;;10.73;3.30;;;13.10;1.00;;;;;;4987516;28;20487;-85
2023/07/06 04:27:48;;;;;;;7.80;3.30;;;13.10;1.00;;;;;;4989110;28;20447;-85
2023/07/06 04:30:16;;;;;;;9.20;3.40;;;13.10;1.00;;;;;;5002357;28;20459;-84
2023/07/06 04:32:48;;;;;;;8.33;3.20;;;13.20;1.00;;;;;;4996331;28;20430;-85
2023/07/06 04:35:14;;;;;;;12.53;3.10;;;13.30;99.90;;;;;;5001978;28;20470;-85
2023/07/06 04:37:41;;;;;;;9.30;2.73;;;13.30;99.90;;;;;;5005800;28;20438;-85
2023/07/06 04:40:12;;;;;;;11.20;3.63;;;13.40;99.90;;;;;;5001089;28;20423;-84
2023/07/06 04:42:41;;;;;;;8.40;3.10;;;13.50;99.90;;;;;;5004092;28;21132;-85
2023/07/06 04:45:11;;;;;;;8.30;3.50;;;13.50;1.00;;;;;;5006227;28;20459;-86
2023/07/06 04:47:39;;;;;;;9.00;2.57;;;13.60;1.00;;;;;;5001543;28;20464;-84
2023/07/06 04:50:09;;;;;;;8.50;3.07;;;13.70;1.00;;;;;;4987677;28;20439;-85
2023/07/06 04:52:37;;;;;;;5.30;2.43;;;13.70;99.90;;;;;;4994665;28;20438;-85
2023/07/06 04:55:08;;;;;;;16.43;3.63;;;13.80;99.90;;;;;;5004433;28;20477;-85
2023/07/06 04:57:35;;;;;;;4.10;2.77;;;13.90;57.70;;;;;;4993693;28;20437;-85
2023/07/06 05:00:11;;;;;;;9.43;2.57;;;14.00;99.90;;;;;;4994730;28;20469;-85
2023/07/06 05:02:37;;;;;;;10.40;3.43;;;14.10;99.90;;;;;;5001716;28;20426;-85
2023/07/06 05:05:02;;;;;;;6.13;2.07;;;14.20;99.90;;;;;;4992922;28;20555;-85
2023/07/06 05:07:30;;;;;;;8.57;2.60;;;14.30;99.90;;;;;;4992674;28;21951;-85
2023/07/06 05:09:56;;;;;;;6.60;2.63;;;14.30;1.00;;;;;;4999670;28;20191;-84
2023/07/06 05:12:21;;;;;;;6.77;2.80;;;14.40;99.90;;;;;;4991538;28;20448;-85
2023/07/06 05:14:47;;;;;;;9.20;2.07;;;14.50;99.90;;;;;;4996288;28;20217;-85
2023/07/06 05:17:13;;;;;;;8.00;2.60;;;14.60;1.00;;;;;;5002686;28;20216;-84
2023/07/06 05:19:38;;;;;;;5.60;2.70;;;14.70;1.00;;;;;;4990989;28;20197;-84
2023/07/06 05:22:04;;;;;;;4.20;2.60;;;14.70;99.90;;;;;;4989683;28;20218;-85
2023/07/06 05:24:30;;;;;;;8.67;2.60;;;14.80;99.90;;;;;;5000473;28;20183;-85
2023/07/06 05:26:55;;;;;;;8.37;2.73;;;14.90;99.90;;;;;;4990704;28;20450;-84
2023/07/06 05:29:21;;;;;;;7.93;2.30;;;15.00;55.30;;;;;;4999098;28;20641;-85
2023/07/06 05:31:48;;;;;;;5.33;2.13;;;15.00;1.00;;;;;;5001308;28;20206;-84
2023/07/06 05:34:14;;;;;;;4.67;2.23;;;15.10;1.00;;;;;;5005487;28;20656;-85
2023/07/06 05:36:40;;;;;;;10.83;2.63;;;15.20;99.90;;;;;;5000502;28;20843;-84
2023/07/06 05:39:06;;;;;;;5.67;2.73;;;15.30;99.90;;;;;;5001200;28;20449;-85
2023/07/06 05:41:32;;;;;;;9.80;2.97;;;15.40;1.00;;;;;;4993116;28;20214;-85
2023/07/06 05:43:58;;;;;;;6.43;2.53;;;15.50;99.90;;;;;;4995776;28;20434;-85
2023/07/06 05:46:24;;;;;;;8.50;2.87;;;15.60;99.90;;;;;;5001514;28;20188;-85
2023/07/06 05:48:51;;;;;;;7.30;2.90;;;15.70;99.90;;;;;;5000181;28;20870;-85
2023/07/06 05:51:17;;;;;;;8.93;3.00;;;15.90;18.30;;;;;;5002017;28;20454;-85
2023/07/06 05:53:43;;;;;;;6.03;2.70;;;16.10;1.00;;;;;;5004323;28;20449;-85
2023/07/06 05:56:08;;;;;;;6.50;3.07;;;16.20;1.00;;;;;;4998753;28;20450;-84
2023/07/06 05:58:34;;;;;;;9.23;2.80;;;16.30;1.00;;;;;;4999509;28;20441;-85
2023/07/06 06:01:00;;;;;;;8.40;2.87;;;16.40;99.90;;;;;;5007248;28;20272;-85
2023/07/06 06:03:26;;;;;;;7.90;2.77;;;16.50;99.90;;;;;;4992131;28;20429;-83
2023/07/06 06:05:53;;;;;;;9.37;2.80;;;16.60;99.90;;;;;;4977542;28;20497;-84
2023/07/06 06:08:19;;;;;;;9.77;2.63;;;16.80;99.90;;;;;;4989845;28;20199;-84
2023/07/06 06:10:45;;;;;;;9.47;2.53;;;17.10;57.50;;;;;;4992697;28;20450;-84
2023/07/06 06:13:11;;;;;;;13.73;3.80;;;17.70;1.00;;;;;;4999036;28;20432;-84
2023/07/06 06:15:37;;;;;;;6.17;2.50;;;18.70;1.00;;;;;;4990885;28;20576;-85
2023/07/06 06:18:03;;;;;;;5.30;2.30;;;20.90;99.90;;;;;;4998449;28;20458;-85
2023/07/06 06:20:30;;;;;;;7.23;2.37;;;24.40;99.90;;;;;;4992745;28;20261;-85
2023/07/06 06:22:56;;;;;;;5.77;2.07;;;27.40;99.90;;;;;;4976367;28;20442;-85
2023/07/06 06:25:22;;;;;;;12.37;2.90;;;29.80;99.90;;;;;;4989823;28;20772;-86
2023/07/06 06:27:47;;;;;;;6.90;1.80;;;31.70;99.90;;;;;;4981003;28;20438;-86
2023/07/06 06:30:14;;;;;;;5.67;2.47;;;33.30;99.90;;;;;;4989031;28;20207;-84
2023/07/06 06:32:41;;;;;;;7.00;2.30;;;34.50;99.90;;;;;;4987962;28;20180;-84
2023/07/06 06:35:28;;;;;;;6.50;1.90;;;35.90;99.90;;;;;;4981658;28;21101;-84
2023/07/06 06:37:54;;;;;;;3.93;1.93;;;36.90;99.90;;;;;;4975127;28;20478;-83
2023/07/06 06:40:21;;;;;;;7.33;2.33;;;38.40;99.90;;;;;;4982575;28;20454;-84
2023/07/06 06:42:48;;;;;;;6.43;2.33;;;39.30;99.90;;;;;;4976105;28;20415;-84
2023/07/06 06:45:15;;;;;;;5.13;2.80;;;39.80;94.50;;;;;;4992184;28;20447;-84
2023/07/06 06:47:41;;;;;;;4.97;2.23;;;40.30;87.00;;;;;;4977433;28;20431;-83
2023/07/06 06:50:09;;;;;;;5.97;2.07;;;40.80;74.70;;;;;;4979993;28;20464;-83
2023/07/06 06:52:35;;;;;;;6.43;2.00;;;41.00;63.10;;;;;;4988469;28;20485;-83
2023/07/06 06:55:01;;;;;;;9.03;2.40;;;41.40;71.20;;;;;;4992240;28;20442;-84
2023/07/06 06:57:27;;;;;;;4.90;2.10;;;42.40;49.60;;;;;;4985784;28;20992;-82
2023/07/06 06:59:53;;;;;;;6.70;2.50;;;43.00;41.50;;;;;;4989794;28;20470;-83
2023/07/06 07:02:22;;;;;;;6.00;2.40;;;44.00;36.80;;;;;;4996409;28;20226;-84
2023/07/06 07:04:49;;;;;;;5.20;2.60;;;44.70;30.60;;;;;;4998600;28;20648;-84
2023/07/06 07:07:15;;;;;;;4.93;2.37;;;45.30;26.30;;;;;;4990875;28;20824;-83
2023/07/06 07:09:41;;;;;;;7.07;2.60;;;46.90;24.60;;;;;;4993415;28;20437;-83
2023/07/06 07:12:07;;;;;;;4.10;2.53;;;47.00;20.50;;;;;;4996249;28;20532;-84
2023/07/06 07:14:33;;;;;;;5.40;2.33;;;47.70;17.10;;;;;;4997066;28;20191;-84
2023/07/06 07:16:59;;;;;;;4.60;2.30;;;47.40;13.30;;;;;;4994118;28;20226;-83
2023/07/06 07:19:28;;;;;;;5.73;2.90;;;48.10;10.40;;;;;;4996371;28;20935;-83
2023/07/06 07:21:53;;;;;;;5.83;2.63;;;49.30;9.10;;;;;;4993287;28;20234;-85
2023/07/06 07:24:19;;;;;;;6.00;2.50;;;49.30;4.70;;;;;;4994598;28;20234;-84
2023/07/06 07:26:48;;;;;;;9.23;2.75;;;50.00;1.00;;;;;;4994198;28;20630;-84
2023/07/06 07:29:14;;;;;;;4.82;2.30;;;50.50;1.00;;;;;;4989863;28;20241;-84
2023/07/06 07:31:41;;;;;;;5.80;3.08;;;50.60;1.00;;;;;;4992740;28;20199;-83
2023/07/06 07:34:07;;;;;;;5.28;2.40;;;51.00;1.00;;;;;;4995200;28;20211;-84
2023/07/06 07:36:32;;;;;;;5.82;2.85;;;50.90;1.00;;;;;;4987458;28;20212;-84
2023/07/06 07:38:58;;;;;;;6.63;2.72;;;51.10;1.00;;;;;;4987095;28;20645;-84
2023/07/06 07:41:25;;;;;;;5.40;2.25;;;50.80;1.00;;;;;;4984041;28;20208;-84
2023/07/06 07:43:51;;;;;;;5.20;2.80;;;51.10;1.00;;;;;;4986143;28;20296;-84
2023/07/06 07:46:19;;;;;;;5.57;2.45;;;51.60;1.00;;;;;;4992954;28;20186;-83
2023/07/06 07:48:46;;;;;;;9.33;2.90;;;52.00;1.00;;;;;;4998273;28;20564;-84
2023/07/06 07:51:18;;;;;;;10.67;2.80;;;49.90;1.00;;;;;;4995645;28;20210;-84
2023/07/06 07:53:44;;;;;;;8.70;2.83;;;50.00;1.00;;;;;;4995206;28;20653;-83
2023/07/06 07:56:10;;;;;;;6.13;2.83;;;50.40;1.00;;;;;;4991035;28;20184;-84
2023/07/06 07:58:39;;;;;;;4.53;2.08;;;51.00;1.00;;;;;;4993096;28;20657;-84
2023/07/06 08:01:07;;;;;;;6.35;2.33;;;51.20;1.00;;;;;;4994079;28;20586;-83
2023/07/06 08:03:33;;;;;;;5.85;2.25;;;51.20;1.00;;;;;;4991056;28;20180;-83
2023/07/06 08:06:02;;;;;;;7.03;2.78;;;51.00;1.00;;;;;;4993452;28;20206;-83
2023/07/06 08:08:33;;;;;;;4.05;2.33;;;51.10;1.00;;;;;;4989055;28;20179;-83
2023/07/06 08:11:06;;;;;;;5.45;2.33;;;51.10;1.00;;;;;;4989050;28;20210;-85
2023/07/06 08:13:32;;;;;;;4.65;2.05;;;51.60;1.00;;;;;;4990507;28;20230;-83
2023/07/06 08:15:59;;;;;;;9.17;2.63;;;51.30;1.00;;;;;;4996024;28;20187;-83
2023/07/06 08:18:25;;;;;;;4.73;2.00;;;51.20;1.00;;;;;;4996734;28;20213;-83
2023/07/06 08:20:54;;;;;;;4.73;2.50;;;51.40;1.00;;;;;;4997579;28;20723;-83
2023/07/06 08:23:27;;;;;;;6.10;2.13;;;51.60;1.00;;;;;;4999072;28;20183;-83
2023/07/06 08:25:53;;;;;;;3.60;2.00;;;51.40;1.00;;;;;;4999252;28;20218;-83
2023/07/06 08:28:21;;;;;;;7.90;2.63;;;51.10;1.00;;;;;;4994653;28;20238;-84
2023/07/06 08:30:49;;;;;;;4.30;2.40;;;50.60;1.00;;;;;;4998553;28;20206;-83
2023/07/06 08:33:14;;;;;;;3.60;2.07;;;51.00;1.00;;;;;;4992179;28;20179;-84
2023/07/06 08:35:42;;;;;;;5.37;1.80;;;51.00;1.00;;;;;;4986580;28;20297;-84
2023/07/06 08:38:08;;;;;;;4.23;1.40;;;50.60;1.00;;;;;;4997108;28;20189;-83
2023/07/06 08:40:35;;;;;;;3.83;2.07;;;50.50;1.00;;;;;;4994749;28;20203;-84
2023/07/06 08:43:04;;;;;;;4.40;1.63;;;50.20;1.00;;;;;;4997007;28;20553;-83
2023/07/06 08:45:42;;;;;;;2.57;1.30;;;50.10;1.00;;;;;;4997416;28;20845;-84
2023/07/06 08:48:12;;;;;;;3.87;1.70;;;50.30;1.00;;;;;;4996218;28;20452;-83
2023/07/06 08:50:38;;;;;;;3.93;1.50;;;50.20;1.00;;;;;;4993034;28;20492;-83
2023/07/06 08:53:05;;;;;;;2.17;1.43;;;50.20;1.00;;;;;;4994380;28;20438;-83
2023/07/06 08:55:30;;;;;;;2.43;1.60;;;50.40;1.00;;;;;;4995903;28;20422;-83
2023/07/06 08:57:56;;;;;;;2.63;1.30;;;50.70;1.00;;;;;;5009384;28;20442;-83
2023/07/06 09:00:28;;;;;;;2.77;1.60;;;50.60;1.00;;;;;;4991681;28;20536;-84
2023/07/06 09:03:01;;;;;;;2.63;1.47;;;50.10;1.00;;;;;;4990078;28;20248;-84
2023/07/06 09:05:33;;;;;;;6.60;1.37;;;49.20;1.00;;;;;;4991806;28;20468;-84
2023/07/06 09:08:00;;;;;;;2.80;1.70;;;49.20;1.00;;;;;;4992433;28;20442;-83
2023/07/06 09:10:30;;;;;;;3.73;1.70;;;49.50;1.00;;;;;;4987929;28;20461;-83
2023/07/06 09:13:11;;;;;;;2.33;1.20;;;49.30;1.00;;;;;;4992508;28;20425;-82
2023/07/06 09:15:37;;;;;;;1.73;1.10;;;49.00;1.00;;;;;;4988363;28;20434;-83
2023/07/06 09:18:15;;;;;;;3.70;1.53;;;48.90;1.00;;;;;;4997298;28;20442;-82
2023/07/06 09:20:44;;;;;;;2.60;1.53;;;48.80;1.00;;;;;;4989436;28;20470;-82
2023/07/06 09:23:13;;;;;;;2.23;1.10;;;48.60;1.00;;;;;;4994669;28;20426;-83
2023/07/06 09:25:42;;;;;;;3.07;1.33;;;48.50;1.00;;;;;;4998657;28;20470;-82
2023/07/06 09:28:18;;;;;;;2.23;1.10;;;48.60;1.00;;;;;;4986472;28;20449;-82
2023/07/06 09:30:45;;;;;;;1.77;1.20;;;48.30;1.00;;;;;;4995091;28;20460;-82
2023/07/06 09:33:22;;;;;;;1.90;1.23;;;48.10;1.00;;;;;;4997935;28;20555;-83
2023/07/06 09:35:55;;;;;;;2.40;0.93;;;48.00;1.00;;;;;;4997881;28;20442;-82
2023/07/06 09:38:24;;;;;;;3.53;1.67;;;47.70;1.00;;;;;;4993490;28;20434;-83
2023/07/06 09:40:50;;;;;;;3.00;1.37;;;47.10;1.00;;;;;;4992076;28;20469;-83
2023/07/06 09:43:16;;;;;;;3.70;1.17;;;46.60;1.00;;;;;;5000922;28;20481;-82
2023/07/06 09:45:42;;;;;;;2.70;1.07;;;46.40;1.00;;;;;;5000726;28;20505;-82
2023/07/06 09:48:29;;;;;;;3.33;1.37;;;45.60;1.00;;;;;;4994972;28;20859;-82
2023/07/06 09:51:06;;;;;;;2.67;1.27;;;45.60;1.00;;;;;;4994236;28;20199;-82
2023/07/06 09:53:36;;;;;;;2.33;1.13;;;45.30;1.00;;;;;;4998101;28;20442;-83
2023/07/06 09:56:03;;;;;;;2.93;1.30;;;45.70;1.00;;;;;;4999269;28;20496;-82
2023/07/06 09:58:30;;;;;;;2.10;1.33;;;45.70;1.00;;;;;;4995295;28;20498;-83
2023/07/06 10:01:33;;;;;;;2.43;1.00;;;45.50;1.00;;;;;;5000889;28;20830;-81
2023/07/06 10:04:07;;;;;;;1.40;1.00;;;45.80;1.00;;;;;;4996784;28;20462;-83
2023/07/06 10:07:05;;;;;;;3.00;1.20;;;46.00;1.00;;;;;;5005914;28;20859;-82
2023/07/06 10:09:59;;;;;;;1.97;1.10;;;45.60;1.00;;;;;;4984569;28;20483;-82
2023/07/06 10:12:48;;;;;;;2.30;1.13;;;45.50;1.00;;;;;;4991578;28;20467;-82
2023/07/06 10:15:37;;;;;;;2.80;1.00;;;45.50;1.00;;;;;;4992085;28;20425;-83
2023/07/06 10:18:21;;;;;;;2.63;1.33;;;45.20;1.00;;;;;;4992504;28;20455;-84
2023/07/06 10:21:06;;;;;;;3.27;1.20;;;44.70;1.00;;;;;;4997910;28;20501;-83
2023/07/06 10:23:42;;;;;;;3.77;1.50;;;44.10;1.00;;;;;;4992439;28;20461;-82
2023/07/06 10:26:18;;;;;;;3.00;1.17;;;44.00;1.00;;;;;;4993086;28;21185;-83
2023/07/06 10:28:54;;;;;;;3.53;1.40;;;44.20;1.00;;;;;;4994578;28;20422;-82
2023/07/06 10:31:28;;;;;;;3.70;1.40;;;43.80;1.00;;;;;;5006591;28;20656;-82
2023/07/06 10:34:13;;;;;;;2.90;1.17;;;43.70;1.00;;;;;;5010105;28;20418;-82
2023/07/06 10:36:40;;;;;;;2.30;1.40;;;43.80;1.00;;;;;;4994218;28;20451;-82
2023/07/06 10:39:32;;;;;;;6.33;1.50;;;44.00;1.00;;;;;;4991997;28;20776;-82
2023/07/06 10:42:19;;;;;;;3.10;1.33;;;44.00;1.00;;;;;;4970906;28;20490;-82
2023/07/06 10:44:49;;;;;;;4.17;1.67;;;43.80;1.00;;;;;;4988497;28;20988;-82
2023/07/06 10:47:37;;;;;;;3.77;1.50;;;43.80;1.00;;;;;;4986638;28;20447;-82
2023/07/06 10:50:08;;;;;;;3.83;1.37;;;43.40;1.00;;;;;;4995881;28;20594;-82
2023/07/06 10:52:40;;;;;;;2.67;1.33;;;42.90;1.00;;;;;;4992912;28;20447;-82
2023/07/06 10:55:27;;;;;;;5.67;1.50;;;42.70;1.00;;;;;;4990225;28;20411;-81
2023/07/06 10:57:57;;;;;;;3.60;1.67;;;41.20;1.00;;;;;;4986709;28;20443;-81
2023/07/06 11:00:33;;;;;;;1.87;1.47;;;39.60;1.00;;;;;;4981833;28;20447;-81
2023/07/06 11:03:00;;;;;;;3.00;1.77;;;37.50;1.00;;;;;;4981253;28;20437;-81
2023/07/06 11:05:28;;;;;;;2.80;1.50;;;35.70;1.00;;;;;;4988346;28;20769;-81
2023/07/06 11:08:05;;;;;;;2.23;1.40;;;34.90;1.00;;;;;;5003611;28;20442;-81
2023/07/06 11:10:39;;;;;;;3.40;1.73;;;35.10;1.00;;;;;;4992205;28;20462;-81
2023/07/06 11:13:04;;;;;;;2.57;1.67;;;34.10;1.00;;;;;;4992687;28;20513;-82
2023/07/06 11:15:48;;;;;;;2.30;1.27;;;33.10;1.00;;;;;;4993975;28;20470;-81
2023/07/06 11:18:44;;;;;;;2.80;1.23;;;34.40;1.00;;;;;;4989905;28;20193;-81
2023/07/06 11:21:34;;;;;;;3.83;1.23;;;36.00;1.00;;;;;;4982044;28;20520;-82
2023/07/06 11:24:09;;;;;;;5.10;1.47;;;37.40;1.00;;;;;;4996101;28;20462;-82
2023/07/06 11:26:38;;;;;;;6.30;1.40;;;37.50;1.00;;;;;;4997422;28;20432;-81
2023/07/06 11:29:08;;;;;;;2.37;1.37;;;36.90;1.00;;;;;;4996912;28;20439;-80
2023/07/06 11:31:47;;;;;;;4.13;1.30;;;35.40;1.00;;;;;;4991479;28;20486;-80
2023/07/06 11:34:34;;;;;;;3.73;1.33;;;35.10;1.00;;;;;;4990421;28;20464;-81
2023/07/06 11:37:12;;;;;;;6.83;1.40;;;35.50;1.00;;;;;;4995516;28;20565;-81
2023/07/06 11:39:54;;;;;;;3.50;1.37;;;35.80;1.00;;;;;;4992831;28;20438;-82
2023/07/06 11:42:40;;;;;;;1.80;0.93;;;34.60;1.00;;;;;;4998843;28;20482;-81
2023/07/06 11:45:28;;;;;;;2.30;1.20;;;33.80;1.00;;;;;;4982637;28;20545;-83
2023/07/06 11:47:59;;;;;;;4.30;1.13;;;32.80;1.00;;;;;;4996018;28;20489;-81
2023/07/06 11:50:33;;;;;;;2.77;1.03;;;33.60;1.00;;;;;;4996613;28;20455;-81
2023/07/06 11:53:09;;;;;;;6.07;1.20;;;34.90;1.00;;;;;;4997291;28;20463;-81
2023/07/06 11:55:50;;;;;;;2.23;0.90;;;35.20;1.00;;;;;;4989615;28;20466;-82
2023/07/06 11:58:43;;;;;;;1.73;1.13;;;35.30;1.00;;;;;;4999238;28;20484;-82
2023/07/06 12:01:20;;;;;;;2.90;1.47;;;34.50;1.00;;;;;;4990229;28;20453;-83
2023/07/06 12:03:47;;;;;;;1.97;1.00;;;33.80;1.00;;;;;;4980041;28;20437;-83
2023/07/06 12:06:19;;;;;;;4.10;1.33;;;33.80;1.00;;;;;;4982281;28;20443;-84
2023/07/06 12:08:45;;;;;;;1.77;1.13;;;33.80;1.00;;;;;;4979714;28;20940;-84
2023/07/06 12:11:21;;;;;;;2.67;1.30;;;33.90;1.00;;;;;;4985359;28;20466;-84
2023/07/06 12:13:55;;;;;;;3.80;1.60;;;34.80;1.00;;;;;;4992730;28;20469;-85
2023/07/06 12:16:24;;;;;;;1.83;1.10;;;35.60;1.00;;;;;;4980645;28;20865;-85
2023/07/06 12:18:59;;;;;;;4.07;1.60;;;36.10;1.00;;;;;;4982280;28;20427;-85
2023/07/06 12:21:31;;;;;;;2.70;1.10;;;36.60;1.00;;;;;;4993233;28;21036;-85
2023/07/06 12:24:04;;;;;;;5.40;1.50;;;36.40;1.00;;;;;;4993278;28;20427;-84
2023/07/06 12:26:31;;;;;;;2.00;1.40;;;35.30;1.00;;;;;;4980499;28;20473;-84
2023/07/06 12:28:59;;;;;;;2.13;1.10;;;34.70;1.00;;;;;;4987030;28;20443;-85
2023/07/06 12:31:26;;;;;;;2.27;1.40;;;35.20;1.00;;;;;;4988265;28;20492;-85
2023/07/06 12:33:56;;;;;;;3.23;1.47;;;35.20;1.00;;;;;;4988991;28;20430;-84
2023/07/06 12:36:26;;;;;;;2.43;1.23;;;35.70;1.00;;;;;;4983576;28;20431;-85
2023/07/06 12:38:55;;;;;;;2.10;1.20;;;34.90;1.00;;;;;;4991187;28;20473;-85
2023/07/06 12:41:21;;;;;;;3.50;1.50;;;33.80;1.00;;;;;;5004359;28;20524;-85
2023/07/06 12:43:53;;;;;;;2.00;1.33;;;33.10;1.00;;;;;;4992973;28;20435;-85
2023/07/06 12:46:21;;;;;;;2.70;1.23;;;32.40;1.00;;;;;;4994296;28;20860;-85
2023/07/06 12:48:51;;;;;;;2.80;1.40;;;32.20;1.00;;;;;;4992236;28;20895;-85
2023/07/06 12:51:23;;;;;;;3.97;1.60;;;33.00;1.00;;;;;;5000147;28;20497;-85
2023/07/06 12:53:50;;;;;;;2.90;1.63;;;33.50;1.00;;;;;;4986714;28;20447;-85
2023/07/06 12:56:19;;;;;;;2.93;1.40;;;34.20;1.00;;;;;;4988726;28;21153;-85
2023/07/06 12:58:53;;;;;;;3.17;1.50;;;34.80;1.00;;;;;;4992955;28;20438;-84
2023/07/06 13:01:20;;;;;;;2.40;1.23;;;34.40;1.00;;;;;;4988583;28;20453;-85
2023/07/06 13:03:51;;;;;;;4.27;1.37;;;33.80;1.00;;;;;;4990466;28;20520;-85
2023/07/06 13:06:19;;;;;;;3.00;1.43;;;33.60;1.00;;;;;;4999965;28;20442;-84
2023/07/06 13:08:45;;;;;;;2.80;1.83;;;33.30;1.00;;;;;;5001133;28;20443;-85
2023/07/06 13:11:12;;;;;;;3.13;1.80;;;33.40;1.00;;;;;;4987507;28;20462;-86
2023/07/06 13:13:42;;;;;;;3.57;1.10;;;33.60;1.00;;;;;;4989425;28;20211;-84